Time;durP1;ratioP1;P1;durP2;ratioP2;P2;SDS_P1;SDS_P2;PMS_P1;PMS_P2;Temp;Humidity;BMP_temperature;BMP_pressure;BME280_temperature;BME280_humidity;BME280_pressure;Samples;Min_cycle;Max_cycle;Signal;HPM_P1;HPM_P2
2022/08/03 00:01:55;;;;;;;3.80;2.73;;;21.90;94.50;;;;;;5032359;28;20414;-65
2022/08/03 00:04:21;;;;;;;4.80;2.67;;;21.90;94.40;;;;;;5032107;28;20211;-65
2022/08/03 00:06:47;;;;;;;3.20;2.83;;;21.90;94.40;;;;;;5031942;28;20177;-65
2022/08/03 00:09:12;;;;;;;2.37;2.20;;;21.90;94.50;;;;;;5032483;28;20180;-64
2022/08/03 00:11:38;;;;;;;2.83;2.53;;;21.90;94.50;;;;;;5032321;28;20262;-64
2022/08/03 00:14:04;;;;;;;4.73;3.03;;;21.90;94.60;;;;;;5032235;28;20252;-65
2022/08/03 00:16:30;;;;;;;2.67;2.47;;;21.90;94.60;;;;;;5032052;28;20649;-65
2022/08/03 00:18:56;;;;;;;2.70;2.40;;;21.90;94.60;;;;;;5031939;28;20538;-64
2022/08/03 00:21:21;;;;;;;2.67;2.47;;;21.90;94.70;;;;;;5032111;28;20192;-65
2022/08/03 00:23:47;;;;;;;3.57;2.70;;;21.90;94.70;;;;;;5032317;28;20198;-64
2022/08/03 00:26:12;;;;;;;4.17;2.90;;;21.90;94.70;;;;;;5032000;28;20200;-65
2022/08/03 00:28:38;;;;;;;2.50;2.30;;;21.90;94.90;;;;;;5032311;28;20181;-65
2022/08/03 00:31:03;;;;;;;4.00;3.30;;;21.90;94.80;;;;;;5031867;28;20236;-65
2022/08/03 00:33:29;;;;;;;3.10;2.80;;;21.80;94.90;;;;;;5031816;28;20575;-64
2022/08/03 00:35:54;;;;;;;3.10;2.90;;;21.80;95.10;;;;;;5031625;28;20171;-64
2022/08/03 00:38:20;;;;;;;2.23;2.13;;;21.80;95.00;;;;;;5032483;28;20631;-64
2022/08/03 00:40:46;;;;;;;4.03;3.00;;;21.80;95.20;;;;;;5031934;28;20176;-64
2022/08/03 00:43:11;;;;;;;5.30;2.50;;;21.80;95.20;;;;;;5031850;28;20338;-64
2022/08/03 00:45:39;;;;;;;4.87;2.97;;;21.80;95.30;;;;;;5031496;28;20168;-64
2022/08/03 00:48:07;;;;;;;4.80;2.77;;;21.80;95.20;;;;;;5031818;28;20277;-64
2022/08/03 00:50:35;;;;;;;3.13;2.83;;;21.80;95.30;;;;;;5031492;28;20467;-64
2022/08/03 00:53:03;;;;;;;3.83;2.50;;;21.80;95.50;;;;;;5031447;28;20452;-64
2022/08/03 00:55:28;;;;;;;4.07;3.10;;;21.80;95.60;;;;;;5031310;28;20429;-64
2022/08/03 00:57:55;;;;;;;3.83;2.97;;;21.80;95.70;;;;;;5030680;28;20500;-64
2022/08/03 01:00:24;;;;;;;3.50;3.10;;;21.80;95.70;;;;;;5031552;28;20169;-65
2022/08/03 01:02:51;;;;;;;6.80;3.27;;;21.80;95.80;;;;;;5031331;28;20437;-64
2022/08/03 01:05:17;;;;;;;4.27;3.40;;;21.70;95.90;;;;;;5031521;28;20423;-64
2022/08/03 01:08:01;;;;;;;3.10;2.80;;;21.70;95.90;;;;;;5031587;28;20411;-64
2022/08/03 01:10:51;;;;;;;3.80;3.50;;;21.70;96.00;;;;;;5031290;28;20910;-64
2022/08/03 01:13:40;;;;;;;5.20;3.93;;;21.70;96.00;;;;;;5031164;28;20817;-64
2022/08/03 01:16:36;;;;;;;3.20;2.80;;;21.60;96.10;;;;;;5031080;28;20407;-64
2022/08/03 01:19:12;;;;;;;3.07;2.50;;;21.60;96.30;;;;;;5031187;28;20817;-64
2022/08/03 01:21:47;;;;;;;5.53;3.30;;;21.60;96.50;;;;;;5031217;28;20869;-64
2022/08/03 01:24:38;;;;;;;2.77;2.47;;;21.60;96.50;;;;;;5031086;28;20550;-64
2022/08/03 01:27:24;;;;;;;2.90;2.60;;;21.70;96.40;;;;;;5030975;28;20442;-64
2022/08/03 01:30:02;;;;;;;3.10;2.83;;;21.70;96.20;;;;;;5031373;28;20873;-64
2022/08/03 01:32:49;;;;;;;2.90;2.70;;;21.70;96.10;;;;;;5031081;28;20407;-65
2022/08/03 01:35:26;;;;;;;2.90;2.70;;;21.70;96.30;;;;;;5030774;28;20413;-65
2022/08/03 01:37:56;;;;;;;4.43;2.73;;;21.70;96.40;;;;;;5028943;28;20407;-65
2022/08/03 01:40:26;;;;;;;2.97;2.63;;;21.60;96.60;;;;;;5030839;28;20901;-64
2022/08/03 01:42:54;;;;;;;3.30;3.00;;;21.60;96.40;;;;;;5030868;28;20438;-64
2022/08/03 01:45:21;;;;;;;3.20;2.90;;;21.60;96.50;;;;;;5030811;28;20557;-64
2022/08/03 01:47:48;;;;;;;6.70;2.50;;;21.60;96.40;;;;;;5030720;28;20407;-64
2022/08/03 01:50:15;;;;;;;2.90;2.70;;;21.70;96.70;;;;;;5030584;28;20415;-64
2022/08/03 01:52:44;;;;;;;3.00;2.70;;;21.70;96.40;;;;;;5030589;28;20810;-64
2022/08/03 01:55:12;;;;;;;3.10;2.50;;;21.70;96.30;;;;;;5030350;28;20501;-64
2022/08/03 01:57:39;;;;;;;3.17;2.80;;;21.60;96.20;;;;;;5030590;28;20414;-64
2022/08/03 02:00:08;;;;;;;7.03;2.90;;;21.60;96.40;;;;;;5030694;28;20428;-64
2022/08/03 02:02:35;;;;;;;2.80;2.60;;;21.60;96.50;;;;;;5030507;28;20477;-64
2022/08/03 02:05:03;;;;;;;2.90;2.57;;;21.60;96.60;;;;;;5030461;28;20398;-65
2022/08/03 02:07:31;;;;;;;3.07;2.40;;;21.70;96.50;;;;;;5030728;28;20506;-64
2022/08/03 02:09:58;;;;;;;4.27;3.87;;;21.60;96.60;;;;;;5030244;28;20396;-64
2022/08/03 02:12:25;;;;;;;4.70;3.00;;;21.60;96.60;;;;;;5030250;28;20497;-64
2022/08/03 02:14:52;;;;;;;3.73;2.90;;;21.70;96.80;;;;;;5030049;28;20506;-64
2022/08/03 02:17:19;;;;;;;3.83;3.30;;;21.70;96.70;;;;;;5030261;28;20401;-64
2022/08/03 02:19:46;;;;;;;3.33;2.60;;;21.70;97.10;;;;;;5030400;28;20496;-64
2022/08/03 02:22:12;;;;;;;3.03;2.80;;;21.70;96.70;;;;;;5030266;28;20815;-64
2022/08/03 02:24:38;;;;;;;4.10;3.47;;;21.70;96.90;;;;;;5029952;28;20510;-64
2022/08/03 02:27:11;;;;;;;5.73;2.93;;;21.70;96.60;;;;;;5030238;28;20502;-63
2022/08/03 02:29:38;;;;;;;2.77;2.50;;;21.60;96.70;;;;;;5030317;28;20179;-64
2022/08/03 02:32:05;;;;;;;3.50;3.10;;;21.60;96.90;;;;;;5030228;28;21050;-64
2022/08/03 02:34:34;;;;;;;3.47;2.20;;;21.70;96.50;;;;;;5029841;28;20459;-64
2022/08/03 02:37:01;;;;;;;2.90;2.70;;;21.70;96.00;;;;;;5030256;28;20408;-64
2022/08/03 02:39:32;;;;;;;2.60;2.40;;;21.70;96.10;;;;;;5030396;28;20411;-64
2022/08/03 02:42:01;;;;;;;2.53;2.33;;;21.70;95.80;;;;;;5030292;28;20421;-64
2022/08/03 02:44:30;;;;;;;4.00;2.83;;;21.60;95.80;;;;;;5030209;28;20863;-64
2022/08/03 02:47:00;;;;;;;3.30;3.00;;;21.70;95.80;;;;;;5030346;28;20412;-64
2022/08/03 02:49:27;;;;;;;3.00;2.30;;;21.60;95.80;;;;;;5030204;28;20448;-64
2022/08/03 02:51:54;;;;;;;5.40;2.97;;;21.70;96.10;;;;;;5030223;28;20407;-64
2022/08/03 02:54:22;;;;;;;2.63;2.43;;;21.70;95.90;;;;;;5029997;28;20467;-64
2022/08/03 02:56:48;;;;;;;3.70;2.20;;;21.60;95.90;;;;;;5029905;28;20403;-66
2022/08/03 02:59:15;;;;;;;6.43;3.00;;;21.60;95.70;;;;;;5030221;28;20499;-64
2022/08/03 03:01:43;;;;;;;3.17;2.83;;;21.70;95.80;;;;;;5030288;28;20425;-65
2022/08/03 03:04:09;;;;;;;3.90;2.40;;;21.60;96.00;;;;;;5030090;28;20828;-64
2022/08/03 03:06:35;;;;;;;6.07;2.80;;;21.60;96.20;;;;;;5029793;28;20463;-64
2022/08/03 03:09:01;;;;;;;2.80;2.50;;;21.60;96.30;;;;;;5029849;28;20439;-64
2022/08/03 03:11:28;;;;;;;3.40;2.40;;;21.60;96.00;;;;;;5029799;28;20648;-64
2022/08/03 03:13:56;;;;;;;2.57;2.37;;;21.50;96.10;;;;;;5029599;28;20534;-64
2022/08/03 03:16:24;;;;;;;3.30;2.70;;;21.50;96.40;;;;;;5029534;28;20742;-64
2022/08/03 03:18:50;;;;;;;3.53;3.23;;;21.50;96.30;;;;;;5029734;28;20411;-64
2022/08/03 03:21:18;;;;;;;3.13;2.83;;;21.40;96.20;;;;;;5032381;28;20420;-64
2022/08/03 03:23:45;;;;;;;5.50;2.50;;;21.40;96.30;;;;;;5035227;28;20456;-64
2022/08/03 03:26:13;;;;;;;3.10;2.80;;;21.30;96.50;;;;;;5033228;28;20468;-65
2022/08/03 03:28:39;;;;;;;6.67;2.87;;;21.30;96.70;;;;;;5033789;28;20408;-64
2022/08/03 03:31:05;;;;;;;2.80;2.60;;;21.20;96.70;;;;;;5033339;28;20886;-64
2022/08/03 03:33:33;;;;;;;2.93;2.73;;;21.20;96.50;;;;;;5033215;28;20461;-64
2022/08/03 03:35:59;;;;;;;3.30;2.97;;;21.30;96.70;;;;;;5032879;28;20418;-64
2022/08/03 03:38:24;;;;;;;5.53;2.67;;;21.30;96.80;;;;;;5033028;28;20409;-64
2022/08/03 03:40:50;;;;;;;2.83;2.63;;;21.30;96.80;;;;;;5033090;28;20534;-64
2022/08/03 03:43:17;;;;;;;4.67;3.07;;;21.30;97.10;;;;;;5032925;28;20208;-64
2022/08/03 03:45:43;;;;;;;3.97;2.27;;;21.30;96.90;;;;;;5032667;28;20179;-65
2022/08/03 03:48:09;;;;;;;2.37;2.17;;;21.20;96.90;;;;;;5032968;28;20943;-65
2022/08/03 03:50:36;;;;;;;2.87;2.60;;;21.20;97.10;;;;;;5033146;28;20504;-65
2022/08/03 03:53:03;;;;;;;3.30;3.00;;;21.20;97.10;;;;;;5032507;28;20202;-65
2022/08/03 03:55:29;;;;;;;2.63;2.43;;;21.20;97.20;;;;;;5032866;28;20467;-65
2022/08/03 03:57:55;;;;;;;3.40;3.10;;;21.20;97.20;;;;;;5033191;28;20410;-65
2022/08/03 04:00:20;;;;;;;3.27;2.57;;;21.20;97.30;;;;;;5032609;28;20409;-65
2022/08/03 04:02:46;;;;;;;3.83;2.83;;;21.20;97.40;;;;;;5032463;28;20206;-64
2022/08/03 04:11:09;;;;;;;2.73;2.53;;;21.20;97.60;;;;;;5032913;28;20680;-64
2022/08/03 04:13:41;;;;;;;3.00;2.80;;;21.20;97.70;;;;;;5021474;28;20469;-65
2022/08/03 04:16:11;;;;;;;3.33;3.03;;;21.20;97.60;;;;;;5031997;28;20410;-65
2022/08/03 04:18:40;;;;;;;3.20;2.90;;;21.30;97.80;;;;;;5032318;28;20758;-65
2022/08/03 04:21:09;;;;;;;3.67;2.80;;;21.30;97.60;;;;;;5032418;28;20434;-65
2022/08/03 04:23:38;;;;;;;4.53;3.30;;;21.30;97.50;;;;;;5032240;28;20454;-65
2022/08/03 04:26:08;;;;;;;4.30;3.40;;;21.30;97.60;;;;;;5032183;28;20423;-65
2022/08/03 04:28:35;;;;;;;3.10;2.90;;;21.40;97.70;;;;;;5032350;28;20414;-65
2022/08/03 04:31:03;;;;;;;2.97;2.67;;;21.40;97.70;;;;;;5032061;28;20420;-65
2022/08/03 04:33:34;;;;;;;6.03;5.43;;;21.50;97.60;;;;;;5032060;28;20456;-65
2022/08/03 04:36:02;;;;;;;4.10;3.07;;;21.50;97.50;;;;;;5032226;28;20408;-64
2022/08/03 04:38:31;;;;;;;3.03;2.73;;;21.40;97.60;;;;;;5032098;28;20404;-64
2022/08/03 04:40:58;;;;;;;5.37;3.10;;;21.50;97.70;;;;;;5032120;28;20396;-66
2022/08/03 04:43:25;;;;;;;3.20;2.90;;;21.50;97.70;;;;;;5031838;28;20969;-67
2022/08/03 04:45:53;;;;;;;3.17;2.97;;;21.50;97.40;;;;;;5031763;28;20449;-64
2022/08/03 04:48:19;;;;;;;3.10;2.80;;;21.60;97.60;;;;;;5031648;28;20452;-67
2022/08/03 04:50:46;;;;;;;4.03;2.80;;;21.60;97.50;;;;;;5031823;28;20527;-64
2022/08/03 04:53:12;;;;;;;2.77;2.57;;;21.70;97.50;;;;;;5031764;28;20464;-65
2022/08/03 04:55:37;;;;;;;2.60;2.20;;;21.70;97.40;;;;;;5031409;28;20495;-65
2022/08/03 04:58:03;;;;;;;3.50;3.13;;;21.70;97.30;;;;;;5031955;28;20245;-65
2022/08/03 05:00:29;;;;;;;2.87;2.60;;;21.80;97.20;;;;;;5031836;28;20553;-65
2022/08/03 05:02:55;;;;;;;6.70;4.07;;;21.80;97.20;;;;;;5031257;28;20468;-65
2022/08/03 05:05:22;;;;;;;4.27;3.83;;;21.90;97.40;;;;;;5031341;28;20532;-66
2022/08/03 05:07:47;;;;;;;2.70;2.50;;;22.00;96.80;;;;;;5031634;28;20970;-65
2022/08/03 05:10:13;;;;;;;3.07;2.80;;;21.90;96.60;;;;;;5031442;28;20548;-65
2022/08/03 05:12:39;;;;;;;5.63;3.93;;;22.00;96.40;;;;;;5031184;28;20254;-65
2022/08/03 05:15:06;;;;;;;3.43;2.80;;;22.10;96.20;;;;;;5031059;28;20507;-66
2022/08/03 05:17:32;;;;;;;3.40;2.83;;;22.20;96.00;;;;;;5031481;28;20478;-66
2022/08/03 05:19:58;;;;;;;4.37;2.40;;;22.50;95.70;;;;;;5031059;28;20773;-65
2022/08/03 05:22:24;;;;;;;4.10;2.53;;;22.90;95.10;;;;;;5031245;28;20516;-66
2022/08/03 05:24:49;;;;;;;3.53;2.17;;;23.60;94.50;;;;;;5030879;28;20849;-66
2022/08/03 05:27:18;;;;;;;2.60;2.40;;;24.20;93.60;;;;;;5031170;28;20506;-64
2022/08/03 05:29:48;;;;;;;2.33;2.13;;;24.50;92.50;;;;;;5031043;28;20171;-64
2022/08/03 05:32:14;;;;;;;6.13;2.80;;;25.10;92.00;;;;;;5030856;28;20418;-65
2022/08/03 05:34:40;;;;;;;2.37;2.17;;;25.00;91.20;;;;;;5030321;28;20493;-69
2022/08/03 05:37:06;;;;;;;5.73;2.40;;;25.20;90.90;;;;;;5030909;28;20433;-65
2022/08/03 05:39:32;;;;;;;2.73;2.53;;;26.00;90.80;;;;;;5030967;28;20259;-65
2022/08/03 05:41:58;;;;;;;3.50;2.47;;;25.80;89.80;;;;;;5031076;28;20509;-65
2022/08/03 05:44:24;;;;;;;3.30;2.50;;;25.70;89.60;;;;;;5030147;28;20426;-65
2022/08/03 05:46:50;;;;;;;4.23;2.97;;;25.80;89.20;;;;;;5030990;28;20175;-65
2022/08/03 05:49:16;;;;;;;3.23;2.93;;;26.10;88.30;;;;;;5030514;28;20182;-65
2022/08/03 05:51:41;;;;;;;2.93;2.63;;;26.10;87.80;;;;;;5030639;28;20245;-65
2022/08/03 05:54:07;;;;;;;2.73;2.30;;;26.50;86.70;;;;;;5030629;28;20203;-65
2022/08/03 05:56:32;;;;;;;5.90;2.70;;;26.90;85.30;;;;;;5030477;28;20172;-65
2022/08/03 05:58:58;;;;;;;4.93;2.50;;;27.40;84.20;;;;;;5030609;28;20163;-65
2022/08/03 06:01:23;;;;;;;5.10;2.23;;;27.90;83.10;;;;;;5030635;28;20254;-66
2022/08/03 06:03:50;;;;;;;2.47;2.30;;;27.90;81.70;;;;;;5030149;28;20234;-68
2022/08/03 06:06:17;;;;;;;5.30;2.10;;;27.70;81.50;;;;;;5030264;28;20251;-66
2022/08/03 06:08:44;;;;;;;3.00;2.10;;;27.90;81.90;;;;;;5012696;28;20398;-66
2022/08/03 06:11:09;;;;;;;2.63;2.27;;;28.20;80.00;;;;;;5030804;28;20494;-66
2022/08/03 06:13:35;;;;;;;2.70;2.50;;;28.20;78.60;;;;;;5030105;28;20492;-65
2022/08/03 06:16:01;;;;;;;4.90;2.47;;;28.10;80.20;;;;;;5031296;28;20175;-67
2022/08/03 06:18:27;;;;;;;4.47;2.37;;;28.60;78.20;;;;;;5030194;28;20247;-66
2022/08/03 06:20:53;;;;;;;4.50;2.50;;;29.00;76.50;;;;;;5030333;28;20242;-66
2022/08/03 06:23:18;;;;;;;3.53;2.47;;;29.20;74.40;;;;;;5030178;28;20195;-67
2022/08/03 06:25:44;;;;;;;4.20;2.90;;;29.20;75.00;;;;;;5030212;28;21092;-66
2022/08/03 06:28:12;;;;;;;3.10;2.00;;;29.70;73.60;;;;;;5030234;28;20226;-66
2022/08/03 06:30:38;;;;;;;3.63;2.10;;;29.40;73.60;;;;;;5030050;28;20413;-66
2022/08/03 06:33:03;;;;;;;2.43;2.00;;;29.40;72.00;;;;;;5029660;28;20553;-66
2022/08/03 06:35:29;;;;;;;2.40;1.90;;;29.40;72.80;;;;;;5029702;28;20258;-64
2022/08/03 06:37:55;;;;;;;6.60;3.27;;;30.00;70.50;;;;;;5030055;28;20400;-65
2022/08/03 06:40:28;;;;;;;3.30;1.80;;;30.00;70.40;;;;;;5030215;28;20179;-65
2022/08/03 06:42:57;;;;;;;2.07;1.87;;;30.10;68.40;;;;;;5029934;28;20429;-65
2022/08/03 06:45:23;;;;;;;2.90;1.83;;;30.10;68.90;;;;;;5029517;28;20497;-65
2022/08/03 06:48:08;;;;;;;3.07;1.80;;;30.80;67.90;;;;;;5029733;28;20406;-65
2022/08/03 06:50:35;;;;;;;3.20;2.13;;;30.40;67.50;;;;;;5030138;28;20179;-64
2022/08/03 06:53:02;;;;;;;4.70;2.07;;;30.50;68.50;;;;;;5029807;28;20454;-65
2022/08/03 06:55:28;;;;;;;1.83;1.50;;;30.90;67.90;;;;;;5030338;28;20405;-65
2022/08/03 06:57:54;;;;;;;5.70;3.40;;;31.10;65.10;;;;;;5033855;28;20739;-65
2022/08/03 07:00:20;;;;;;;2.40;1.90;;;31.40;67.30;;;;;;5033845;28;20180;-65
2022/08/03 07:02:46;;;;;;;2.17;1.50;;;31.40;66.50;;;;;;5033333;28;20460;-65
2022/08/03 07:05:12;;;;;;;3.73;2.27;;;31.50;64.90;;;;;;5033281;28;20877;-65
2022/08/03 07:07:38;;;;;;;1.97;1.83;;;31.90;67.90;;;;;;5033644;28;20402;-65
2022/08/03 07:10:05;;;;;;;6.00;2.10;;;31.80;64.30;;;;;;5033599;28;20203;-65
2022/08/03 07:12:32;;;;;;;4.03;2.67;;;31.90;66.20;;;;;;5033438;28;20170;-65
2022/08/03 07:14:59;;;;;;;3.77;2.13;;;31.90;68.10;;;;;;5033337;28;20457;-65
2022/08/03 07:17:24;;;;;;;7.70;2.20;;;32.50;63.80;;;;;;5033563;28;20505;-65
2022/08/03 07:19:50;;;;;;;3.20;1.70;;;33.40;62.10;;;;;;5034231;28;20398;-65
2022/08/03 07:22:16;;;;;;;3.90;1.77;;;32.40;63.90;;;;;;5033318;28;20597;-65
2022/08/03 07:24:41;;;;;;;2.13;1.93;;;32.00;65.30;;;;;;5032920;28;20274;-65
2022/08/03 07:27:08;;;;;;;3.00;1.70;;;31.80;62.80;;;;;;5033220;28;20526;-65
2022/08/03 07:29:35;;;;;;;2.23;1.70;;;32.10;63.10;;;;;;5033233;28;20186;-65
2022/08/03 07:32:01;;;;;;;2.90;1.93;;;31.90;62.00;;;;;;5032855;28;20402;-65
2022/08/03 07:34:26;;;;;;;2.00;1.70;;;31.80;62.90;;;;;;5032986;28;20492;-65
2022/08/03 07:36:52;;;;;;;3.20;2.57;;;32.10;64.40;;;;;;5032960;28;20394;-65
2022/08/03 07:39:18;;;;;;;3.20;1.90;;;32.70;62.50;;;;;;5033125;28;20252;-65
2022/08/03 07:41:44;;;;;;;6.00;1.87;;;32.20;62.20;;;;;;5032971;28;20190;-65
2022/08/03 07:44:10;;;;;;;3.80;2.57;;;32.10;61.30;;;;;;5032870;28;20197;-65
2022/08/03 07:46:35;;;;;;;3.63;2.10;;;32.40;60.90;;;;;;5032593;28;20948;-65
2022/08/03 07:49:01;;;;;;;5.30;3.20;;;32.20;64.00;;;;;;5033021;28;20234;-64
2022/08/03 07:51:26;;;;;;;3.20;2.63;;;32.80;64.20;;;;;;5032969;28;20175;-65
2022/08/03 07:53:52;;;;;;;2.17;1.60;;;33.00;63.00;;;;;;5032746;28;20512;-66
2022/08/03 07:56:18;;;;;;;1.90;1.80;;;32.90;61.20;;;;;;5032586;28;20179;-66
2022/08/03 07:58:44;;;;;;;2.23;1.70;;;32.70;61.80;;;;;;5032953;28;20175;-65
2022/08/03 08:01:09;;;;;;;3.90;2.43;;;33.20;59.70;;;;;;5032603;28;20258;-65
2022/08/03 08:03:35;;;;;;;3.10;2.40;;;33.10;63.10;;;;;;5057173;22;20203;-74
2022/08/03 08:06:00;;;;;;;6.77;3.83;;;32.20;60.40;;;;;;5052703;28;20187;-74
2022/08/03 08:08:26;;;;;;;4.10;2.97;;;32.80;59.20;;;;;;5054132;28;20163;-75
2022/08/03 08:10:52;;;;;;;2.30;1.77;;;34.00;60.00;;;;;;5054136;28;20455;-75
2022/08/03 08:13:17;;;;;;;2.23;1.77;;;33.40;58.00;;;;;;5054153;28;20198;-74
2022/08/03 08:15:43;;;;;;;2.50;1.47;;;33.60;59.00;;;;;;5053508;28;20233;-75
2022/08/03 08:18:08;;;;;;;1.47;1.30;;;33.20;58.20;;;;;;5054043;28;20167;-75
2022/08/03 08:20:36;;;;;;;3.07;2.33;;;33.50;58.60;;;;;;5054065;28;20159;-74
2022/08/03 08:23:05;;;;;;;3.47;3.17;;;33.30;58.80;;;;;;5054124;28;20581;-75
2022/08/03 08:25:31;;;;;;;1.37;1.27;;;34.20;56.50;;;;;;5054036;28;20417;-75
2022/08/03 08:28:00;;;;;;;3.60;1.30;;;33.30;58.20;;;;;;5063675;28;20484;-75
2022/08/03 08:30:26;;;;;;;2.30;1.43;;;32.90;59.00;;;;;;5065227;28;20393;-74
2022/08/03 08:32:51;;;;;;;1.97;1.87;;;33.10;55.60;;;;;;5066886;28;20421;-75
2022/08/03 08:35:18;;;;;;;2.53;2.23;;;33.40;56.30;;;;;;5061966;28;20652;-75
2022/08/03 08:37:45;;;;;;;1.90;1.43;;;33.40;55.70;;;;;;5053994;28;20159;-75
2022/08/03 08:40:12;;;;;;;3.30;1.70;;;33.50;55.00;;;;;;5053812;28;20532;-75
2022/08/03 08:42:39;;;;;;;2.80;2.17;;;33.90;54.40;;;;;;5053624;28;20952;-75
2022/08/03 08:45:07;;;;;;;2.30;1.80;;;33.50;55.90;;;;;;5053394;28;21289;-75
2022/08/03 08:47:36;;;;;;;1.80;1.50;;;33.60;57.50;;;;;;5053461;28;20487;-74
2022/08/03 08:50:02;;;;;;;1.63;1.23;;;33.90;56.00;;;;;;5053222;28;20405;-75
2022/08/03 08:52:29;;;;;;;2.83;1.40;;;33.90;54.70;;;;;;5053211;28;20413;-74
2022/08/03 08:55:02;;;;;;;1.43;1.33;;;32.90;55.90;;;;;;5052737;28;20453;-74
2022/08/03 08:57:32;;;;;;;1.93;1.73;;;32.70;55.50;;;;;;5052970;28;20489;-75
2022/08/03 08:59:58;;;;;;;2.47;1.80;;;33.50;56.30;;;;;;5053473;28;20788;-75
2022/08/03 09:02:24;;;;;;;1.77;1.30;;;33.40;55.10;;;;;;5053550;28;20405;-74
2022/08/03 09:04:50;;;;;;;1.90;1.80;;;33.50;55.00;;;;;;5053060;28;20313;-75
2022/08/03 09:07:16;;;;;;;4.93;1.73;;;33.20;55.50;;;;;;5055546;28;20412;-74
2022/08/03 09:09:42;;;;;;;1.40;1.30;;;33.60;55.80;;;;;;5056874;28;20421;-74
2022/08/03 09:12:08;;;;;;;2.13;1.50;;;33.10;55.00;;;;;;5053607;28;20285;-75
2022/08/03 09:14:34;;;;;;;3.23;1.77;;;33.20;55.40;;;;;;5052692;28;20632;-75
2022/08/03 09:17:01;;;;;;;5.73;3.80;;;33.40;55.30;;;;;;5053087;28;20590;-75
2022/08/03 09:19:28;;;;;;;25.33;21.40;;;33.50;54.60;;;;;;5052429;28;20179;-75
2022/08/03 09:22:14;;;;;;;26.80;24.10;;;33.00;55.50;;;;;;5053025;28;20484;-75
2022/08/03 09:25:04;;;;;;;3.13;2.37;;;33.50;55.20;;;;;;5052895;28;20478;-74
2022/08/03 09:27:42;;;;;;;1.43;1.33;;;33.70;54.50;;;;;;5050482;28;20420;-74
2022/08/03 09:30:13;;;;;;;9.17;8.27;;;34.20;52.60;;;;;;5057125;28;20440;-75
2022/08/03 09:32:39;;;;;;;2.60;2.40;;;34.80;53.00;;;;;;5056402;28;20455;-75
2022/08/03 09:35:05;;;;;;;2.83;2.07;;;33.90;53.50;;;;;;5052797;28;20493;-75
2022/08/03 09:37:30;;;;;;;1.83;1.67;;;33.50;53.70;;;;;;5058107;28;20684;-75
2022/08/03 09:39:56;;;;;;;3.50;2.37;;;33.30;54.20;;;;;;5052631;28;20250;-76
2022/08/03 09:42:22;;;;;;;1.90;1.43;;;34.30;54.00;;;;;;5052469;28;20178;-75
2022/08/03 09:44:50;;;;;;;1.77;1.67;;;33.10;53.40;;;;;;5052044;28;20806;-75
2022/08/03 09:47:30;;;;;;;1.90;1.40;;;33.50;56.00;;;;;;5052182;28;20401;-75
2022/08/03 09:50:00;;;;;;;1.80;1.70;;;34.10;54.20;;;;;;5052444;28;20775;-75
2022/08/03 09:52:34;;;;;;;2.70;1.97;;;34.20;53.40;;;;;;5052466;28;20899;-75
2022/08/03 09:55:01;;;;;;;4.53;3.67;;;33.30;53.00;;;;;;5051851;28;20465;-75
2022/08/03 09:57:29;;;;;;;4.00;2.80;;;33.70;53.60;;;;;;5052496;28;20409;-75
2022/08/03 10:00:14;;;;;;;1.60;1.50;;;33.40;54.20;;;;;;5052310;28;20408;-75
2022/08/03 10:02:41;;;;;;;1.50;1.40;;;33.60;53.30;;;;;;5052056;28;20839;-75
2022/08/03 10:05:08;;;;;;;1.97;1.50;;;34.80;50.60;;;;;;5051497;28;20440;-75
2022/08/03 10:07:45;;;;;;;3.20;1.47;;;34.50;51.40;;;;;;5051990;28;20945;-74
2022/08/03 10:10:11;;;;;;;2.87;1.40;;;33.30;54.00;;;;;;5050539;28;20421;-75
2022/08/03 10:12:39;;;;;;;2.07;1.87;;;33.30;52.10;;;;;;5052120;28;20405;-74
2022/08/03 10:15:05;;;;;;;2.10;2.00;;;33.30;52.50;;;;;;5051897;28;20460;-74
2022/08/03 10:17:31;;;;;;;1.70;1.60;;;33.20;52.50;;;;;;5052164;28;20459;-74
2022/08/03 10:19:58;;;;;;;1.90;1.70;;;33.20;53.50;;;;;;5051950;28;20405;-75
2022/08/03 10:22:32;;;;;;;1.63;1.47;;;33.00;53.90;;;;;;5052000;28;20613;-74
2022/08/03 10:25:01;;;;;;;1.50;1.40;;;32.70;53.80;;;;;;5052679;28;20919;-74
2022/08/03 10:27:31;;;;;;;1.70;1.60;;;32.80;54.80;;;;;;5072354;28;20898;-74
2022/08/03 10:30:04;;;;;;;1.67;1.57;;;32.40;54.80;;;;;;5061799;28;21066;-74
2022/08/03 10:32:51;;;;;;;1.43;1.27;;;32.50;53.70;;;;;;5065580;28;20491;-74
2022/08/03 10:35:20;;;;;;;10.10;2.37;;;33.00;53.30;;;;;;5075914;28;20436;-74
2022/08/03 10:37:56;;;;;;;2.03;1.83;;;32.30;55.40;;;;;;5057265;28;20841;-74
2022/08/03 10:40:23;;;;;;;9.83;2.87;;;32.40;54.50;;;;;;5056592;28;20445;-74
2022/08/03 10:42:52;;;;;;;3.80;1.87;;;32.40;55.20;;;;;;5057350;28;20401;-74
2022/08/03 10:45:22;;;;;;;2.17;1.77;;;32.40;54.90;;;;;;5059436;28;20429;-74
2022/08/03 10:47:49;;;;;;;2.57;2.20;;;32.00;54.80;;;;;;5056689;28;20425;-71
2022/08/03 10:50:16;;;;;;;2.70;2.13;;;31.70;55.20;;;;;;5057203;28;20462;-70
2022/08/03 10:53:06;;;;;;;1.80;1.70;;;31.70;55.50;;;;;;5057852;28;20437;-75
2022/08/03 10:58:35;;;;;;;3.17;2.87;;;31.40;55.40;;;;;;5058381;28;20419;-75
2022/08/03 11:01:01;;;;;;;1.70;1.60;;;31.70;55.90;;;;;;5059147;28;20897;-75
2022/08/03 11:03:26;;;;;;;2.10;1.80;;;31.90;56.20;;;;;;5056855;28;20488;-75
2022/08/03 11:05:54;;;;;;;1.93;1.73;;;32.00;53.90;;;;;;5058760;28;20182;-75
2022/08/03 11:08:24;;;;;;;2.93;1.70;;;31.70;54.70;;;;;;5056993;28;20158;-74
2022/08/03 11:10:57;;;;;;;3.67;1.90;;;31.80;55.60;;;;;;5055307;28;20412;-74
2022/08/03 11:13:24;;;;;;;1.67;1.57;;;31.90;55.20;;;;;;5055483;28;20449;-74
2022/08/03 11:15:55;;;;;;;4.80;4.30;;;32.20;54.30;;;;;;5055402;28;20393;-74
2022/08/03 11:18:21;;;;;;;2.10;1.90;;;32.00;54.80;;;;;;5063502;28;20429;-74
2022/08/03 11:20:53;;;;;;;2.53;1.50;;;32.30;54.60;;;;;;5056735;28;20436;-74
2022/08/03 11:23:41;;;;;;;1.53;1.43;;;32.30;54.60;;;;;;5055363;28;20484;-74
2022/08/03 11:26:12;;;;;;;2.60;2.23;;;32.20;53.90;;;;;;5053964;28;20401;-74
2022/08/03 11:28:39;;;;;;;2.43;2.10;;;32.00;54.30;;;;;;5054204;28;20417;-75
2022/08/03 11:31:25;;;;;;;1.80;1.70;;;32.10;54.70;;;;;;5054760;28;20496;-75
2022/08/03 11:34:11;;;;;;;1.70;1.60;;;32.00;54.00;;;;;;5053294;28;20459;-75
2022/08/03 11:37:14;;;;;;;1.90;1.80;;;31.80;54.50;;;;;;5055089;28;20410;-74
2022/08/03 11:39:43;;;;;;;2.37;1.70;;;32.10;54.90;;;;;;5055323;28;20484;-74
2022/08/03 11:42:37;;;;;;;1.53;1.43;;;32.10;54.40;;;;;;5054131;28;20480;-74
2022/08/03 11:45:07;;;;;;;1.53;1.43;;;32.20;53.70;;;;;;5053221;28;20768;-74
2022/08/03 11:47:37;;;;;;;1.70;1.60;;;32.10;53.00;;;;;;5054938;28;20397;-74
2022/08/03 11:50:03;;;;;;;1.57;1.47;;;32.30;53.10;;;;;;5054618;28;20404;-74
2022/08/03 11:52:36;;;;;;;1.60;1.50;;;32.30;53.10;;;;;;5053035;28;20453;-74
2022/08/03 11:55:08;;;;;;;2.07;1.30;;;32.30;52.90;;;;;;5054093;28;20463;-74
2022/08/03 11:57:34;;;;;;;1.50;1.40;;;31.80;53.10;;;;;;5054547;28;20413;-74
2022/08/03 12:00:00;;;;;;;1.57;1.40;;;31.90;53.60;;;;;;5054344;28;20900;-74
2022/08/03 12:02:26;;;;;;;1.60;1.50;;;32.10;53.80;;;;;;5054378;28;20397;-74
2022/08/03 12:04:57;;;;;;;1.60;1.50;;;32.20;54.30;;;;;;5052719;28;20351;-74
2022/08/03 12:07:23;;;;;;;2.70;1.60;;;32.30;53.80;;;;;;5053088;28;20182;-75
2022/08/03 12:10:09;;;;;;;1.70;1.60;;;32.10;53.70;;;;;;5053146;28;20506;-75
2022/08/03 12:12:36;;;;;;;1.40;1.30;;;31.90;54.60;;;;;;5054585;28;20408;-75
2022/08/03 12:15:03;;;;;;;1.30;1.20;;;32.10;55.10;;;;;;5053895;28;20488;-75
2022/08/03 12:17:37;;;;;;;3.03;1.60;;;32.40;54.10;;;;;;5054129;28;21210;-76
2022/08/03 12:20:05;;;;;;;1.50;1.40;;;32.50;53.70;;;;;;5054108;28;20408;-76
2022/08/03 12:22:39;;;;;;;1.60;1.50;;;32.60;53.40;;;;;;5055114;28;20402;-75
2022/08/03 12:25:06;;;;;;;2.30;1.67;;;32.40;54.20;;;;;;5054894;28;20514;-75
2022/08/03 12:27:32;;;;;;;1.33;1.23;;;32.40;54.30;;;;;;5062449;28;20408;-75
2022/08/03 12:29:59;;;;;;;2.40;1.40;;;32.40;54.60;;;;;;5073759;28;20454;-75
2022/08/03 12:32:27;;;;;;;2.07;1.30;;;32.60;54.30;;;;;;5054138;28;20220;-75
2022/08/03 12:34:54;;;;;;;1.77;1.20;;;32.40;54.10;;;;;;5053166;28;20527;-75
2022/08/03 12:37:21;;;;;;;2.33;1.70;;;32.40;53.70;;;;;;5053778;28;20448;-75
2022/08/03 12:40:02;;;;;;;1.97;1.77;;;32.40;53.90;;;;;;5053801;28;20401;-75
2022/08/03 12:42:34;;;;;;;1.40;1.30;;;32.30;54.20;;;;;;5053810;28;20405;-75
2022/08/03 12:45:24;;;;;;;3.10;1.63;;;32.40;54.80;;;;;;5053357;28;20520;-75
2022/08/03 12:47:52;;;;;;;1.50;1.40;;;32.50;54.30;;;;;;5054026;28;20836;-75
2022/08/03 12:50:31;;;;;;;1.40;1.30;;;32.00;54.10;;;;;;5053623;28;20444;-75
2022/08/03 12:52:58;;;;;;;2.70;1.90;;;32.20;54.50;;;;;;5052514;28;20413;-75
2022/08/03 12:55:32;;;;;;;2.37;1.70;;;32.50;55.30;;;;;;5052974;28;20445;-75
2022/08/03 12:58:09;;;;;;;1.57;1.47;;;32.30;54.60;;;;;;5053455;28;20402;-75
2022/08/03 13:00:35;;;;;;;1.77;1.60;;;32.30;55.40;;;;;;5053880;28;20394;-75
2022/08/03 13:03:06;;;;;;;1.50;1.40;;;32.60;54.40;;;;;;5054026;28;20455;-75